Time;durP1;ratioP1;P1;durP2;ratioP2;P2;SDS_P1;SDS_P2;PMS_P1;PMS_P2;Temp;Humidity;BMP_temperature;BMP_pressure;BME280_temperature;BME280_humidity;BME280_pressure;Samples;Min_cycle;Max_cycle;Signal;HPM_P1;HPM_P2
2023/09/10 00:01:03;;;;;;;32.80;29.97;;;;;;;;;;5033986;28;20021;-56
2023/09/10 00:03:28;;;;;;;79.95;73.78;;;;;;;;;;5033818;28;20076;-56
2023/09/10 00:05:53;;;;;;;278.43;255.43;;;;;;;;;;5033629;28;20385;-56
2023/09/10 00:08:19;;;;;;;93.33;86.10;;;;;;;;;;5031363;28;20029;-55
2023/09/10 00:10:44;;;;;;;;;;;;;;;;;;5020390;28;20098;-56
2023/09/10 00:13:10;;;;;;;126.25;116.68;;;;;;;;;;5013925;28;20000;-56
2023/09/10 00:15:35;;;;;;;53.67;49.43;;;;;;;;;;5013895;28;20033;-55
2023/09/10 00:18:00;;;;;;;86.43;80.10;;;;;;;;;;5013834;28;20026;-56
2023/09/10 00:20:27;;;;;;;84.88;78.70;;;;;;;;;;5013022;28;20014;-56
2023/09/10 00:22:52;;;;;;;117.55;109.65;;;;;;;;;;5016201;28;20053;-55
2023/09/10 00:25:17;;;;;;;67.10;62.17;;;;;;;;;;5021057;28;20030;-55
2023/09/10 00:27:42;;;;;;;38.92;36.03;;;;;;;;;;5021667;28;20389;-55
2023/09/10 00:30:07;;;;;;;102.63;95.43;;;;;;;;;;5014703;28;20026;-56
2023/09/10 00:32:33;;;;;;;75.28;69.50;;;;;;;;;;5015589;28;20034;-56
2023/09/10 00:34:58;;;;;;;32.40;29.93;;;;;;;;;;5015783;28;20397;-55
2023/09/10 00:37:23;;;;;;;111.40;103.77;;;;;;;;;;5027707;28;20148;-56
2023/09/10 00:39:48;;;;;;;85.50;79.47;;;;;;;;;;5023171;28;20020;-56
2023/09/10 00:42:13;;;;;;;151.10;139.35;;;;;;;;;;5033024;28;20096;-56
2023/09/10 00:44:40;;;;;;;69.97;65.23;;;;;;;;;;5031694;28;20475;-56
2023/09/10 00:47:06;;;;;;;95.05;88.43;;;;;;;;;;5032746;28;20097;-56
2023/09/10 00:49:31;;;;;;;106.18;98.25;;;;;;;;;;5032315;28;20100;-55
2023/09/10 00:51:57;;;;;;;77.23;71.63;;;;;;;;;;5030908;28;20492;-56
2023/09/10 00:54:23;;;;;;;115.30;107.07;;;;;;;;;;5021188;28;20010;-57
2023/09/10 00:56:49;;;;;;;54.55;50.50;;;;;;;;;;5011517;28;20057;-56
2023/09/10 00:59:14;;;;;;;29.73;27.48;;;;;;;;;;5012969;28;20104;-56
2023/09/10 01:01:39;;;;;;;82.57;76.97;;;;;;;;;;5012938;28;20018;-56
2023/09/10 01:04:05;;;;;;;78.57;73.03;;;;;;;;;;5012718;28;20091;-56
2023/09/10 01:06:30;;;;;;;46.40;43.00;;;;;;;;;;5015793;28;20025;-56
2023/09/10 01:08:55;;;;;;;52.83;49.20;;;;;;;;;;5027778;28;20021;-55
2023/09/10 01:11:28;;;;;;;22.60;20.58;;;;;;;;;;5025411;28;20046;-55
2023/09/10 01:14:05;;;;;;;66.20;61.47;;;;;;;;;;5029800;28;20021;-55
2023/09/10 01:16:59;;;;;;;59.55;55.13;;;;;;;;;;5030529;28;20025;-54
2023/09/10 01:19:42;;;;;;;51.42;47.47;;;;;;;;;;5012062;28;20040;-55
2023/09/10 01:22:25;;;;;;;108.55;101.00;;;;;;;;;;5028427;28;20469;-56
2023/09/10 01:24:51;;;;;;;49.70;46.22;;;;;;;;;;5029894;28;20017;-56
2023/09/10 01:27:17;;;;;;;39.28;36.50;;;;;;;;;;5032351;28;20507;-56
2023/09/10 01:29:42;;;;;;;77.05;71.63;;;;;;;;;;5020834;28;20018;-57
2023/09/10 01:32:13;;;;;;;125.85;117.15;;;;;;;;;;5020936;28;20038;-56
2023/09/10 01:34:44;;;;;;;117.65;109.85;;;;;;;;;;5015339;28;20612;-56
2023/09/10 01:37:15;;;;;;;80.18;74.05;;;;;;;;;;5021777;28;20044;-56
2023/09/10 01:39:41;;;;;;;47.00;43.42;;;;;;;;;;5015908;28;20137;-56
2023/09/10 01:42:07;;;;;;;129.50;120.57;;;;;;;;;;5012062;28;20485;-55
2023/09/10 01:44:32;;;;;;;43.47;40.30;;;;;;;;;;5021696;28;20417;-57
2023/09/10 01:46:58;;;;;;;35.37;32.63;;;;;;;;;;5013699;28;20038;-56
2023/09/10 01:49:24;;;;;;;70.97;66.32;;;;;;;;;;5011404;28;20064;-56
2023/09/10 01:51:49;;;;;;;31.30;29.10;;;;;;;;;;5019330;28;20028;-55
2023/09/10 01:54:14;;;;;;;35.87;33.20;;;;;;;;;;5019911;28;20052;-56
2023/09/10 01:56:40;;;;;;;111.13;102.82;;;;;;;;;;5011671;28;20056;-56
2023/09/10 01:59:05;;;;;;;88.50;81.83;;;;;;;;;;5012381;28;20026;-55
2023/09/10 02:01:30;;;;;;;127.97;119.85;;;;;;;;;;5024528;28;20013;-55
2023/09/10 02:03:55;;;;;;;51.73;48.03;;;;;;;;;;5031482;28;20017;-56
2023/09/10 02:06:20;;;;;;;27.75;25.65;;;;;;;;;;5030513;28;20029;-55
2023/09/10 02:08:46;;;;;;;70.07;65.10;;;;;;;;;;5022418;28;20445;-56
2023/09/10 02:11:12;;;;;;;67.47;62.83;;;;;;;;;;5011767;28;20030;-56
2023/09/10 02:13:37;;;;;;;31.10;28.52;;;;;;;;;;5011505;28;20481;-56
2023/09/10 02:16:02;;;;;;;125.40;116.80;;;;;;;;;;5015556;28;20037;-56
2023/09/10 02:18:28;;;;;;;78.53;73.17;;;;;;;;;;5021915;28;20014;-55
2023/09/10 02:20:53;;;;;;;92.38;85.75;;;;;;;;;;5028930;28;20485;-56
2023/09/10 02:23:18;;;;;;;122.63;114.03;;;;;;;;;;5024354;28;20013;-56
2023/09/10 02:25:43;;;;;;;44.15;40.95;;;;;;;;;;5027304;28;20030;-56
2023/09/10 02:28:08;;;;;;;22.63;20.75;;;;;;;;;;5031139;28;20069;-55
2023/09/10 02:30:34;;;;;;;100.93;93.43;;;;;;;;;;5029022;28;20028;-55
2023/09/10 02:32:59;;;;;;;95.80;89.63;;;;;;;;;;5021835;28;20057;-55
2023/09/10 02:35:24;;;;;;;29.65;27.45;;;;;;;;;;5028858;28;20021;-55
2023/09/10 02:37:49;;;;;;;95.90;89.50;;;;;;;;;;5029773;28;20441;-56
2023/09/10 02:40:15;;;;;;;28.33;26.23;;;;;;;;;;5022344;28;20022;-55
2023/09/10 02:42:40;;;;;;;36.60;33.97;;;;;;;;;;5030948;28;20416;-56
2023/09/10 02:45:06;;;;;;;130.98;121.70;;;;;;;;;;5027931;28;20029;-55
2023/09/10 02:47:31;;;;;;;91.38;84.88;;;;;;;;;;5023949;28;20036;-56
2023/09/10 02:49:57;;;;;;;95.80;89.18;;;;;;;;;;5030286;28;20017;-56
2023/09/10 02:52:24;;;;;;;83.35;76.55;;;;;;;;;;5029655;28;20025;-56
2023/09/10 02:54:50;;;;;;;79.88;73.88;;;;;;;;;;5022154;28;20018;-57
2023/09/10 02:57:15;;;;;;;166.85;155.98;;;;;;;;;;5010882;28;20032;-56
2023/09/10 02:59:40;;;;;;;69.87;65.23;;;;;;;;;;5010613;28;20028;-56
2023/09/10 03:02:05;;;;;;;58.75;54.80;;;;;;;;;;5020432;28;20049;-56
2023/09/10 03:04:30;;;;;;;47.03;43.50;;;;;;;;;;5025679;28;20021;-56
2023/09/10 03:06:56;;;;;;;87.27;80.97;;;;;;;;;;5030554;28;20040;-56
2023/09/10 03:09:21;;;;;;;43.07;40.07;;;;;;;;;;5020891;28;20037;-56
2023/09/10 03:11:46;;;;;;;154.43;144.23;;;;;;;;;;5014487;28;20050;-56
2023/09/10 03:14:11;;;;;;;45.80;42.25;;;;;;;;;;5010691;28;20042;-56
2023/09/10 03:16:40;;;;;;;139.53;130.17;;;;;;;;;;5017121;28;20104;-56
2023/09/10 03:19:05;;;;;;;130.48;121.55;;;;;;;;;;5021378;28;20491;-56
2023/09/10 03:21:31;;;;;;;48.77;45.47;;;;;;;;;;5030633;28;20025;-56
2023/09/10 03:23:56;;;;;;;160.07;149.73;;;;;;;;;;5025665;28;20025;-56
2023/09/10 03:26:21;;;;;;;81.23;75.57;;;;;;;;;;5023375;28;20017;-55
2023/09/10 03:28:47;;;;;;;52.72;48.75;;;;;;;;;;5028331;28;20510;-56
2023/09/10 03:31:12;;;;;;;82.65;76.95;;;;;;;;;;5030249;28;20033;-55
2023/09/10 03:33:37;;;;;;;28.57;26.40;;;;;;;;;;5021218;28;20405;-56
2023/09/10 03:36:03;;;;;;;80.10;74.60;;;;;;;;;;5019233;28;20357;-56
2023/09/10 03:38:28;;;;;;;43.17;40.15;;;;;;;;;;5012666;28;20056;-56
2023/09/10 03:40:53;;;;;;;42.08;39.17;;;;;;;;;;5025347;28;20022;-55
2023/09/10 03:43:18;;;;;;;55.90;52.07;;;;;;;;;;5030471;28;20076;-56
2023/09/10 03:45:44;;;;;;;62.90;58.33;;;;;;;;;;5028648;28;20049;-56
2023/09/10 03:48:09;;;;;;;94.32;87.70;;;;;;;;;;5029544;28;20035;-56
2023/09/10 03:50:34;;;;;;;45.53;42.10;;;;;;;;;;5021131;28;20018;-55
2023/09/10 03:53:00;;;;;;;65.55;60.55;;;;;;;;;;5013483;28;20385;-55
2023/09/10 03:55:25;;;;;;;30.33;28.10;;;;;;;;;;5021831;28;20049;-56
2023/09/10 03:57:50;;;;;;;31.27;28.83;;;;;;;;;;5013550;28;20026;-55
2023/09/10 04:00:15;;;;;;;38.08;35.25;;;;;;;;;;5012811;28;20108;-55
2023/09/10 04:02:40;;;;;;;65.97;61.47;;;;;;;;;;5013846;28;20038;-56
2023/09/10 04:05:06;;;;;;;39.80;36.70;;;;;;;;;;5017579;28;20045;-56
2023/09/10 04:07:31;;;;;;;142.13;132.45;;;;;;;;;;5027190;28;21292;-56
2023/09/10 04:09:57;;;;;;;94.88;88.75;;;;;;;;;;5024607;28;20013;-55
2023/09/10 04:12:22;;;;;;;119.88;111.65;;;;;;;;;;5033465;28;20487;-56
2023/09/10 04:14:47;;;;;;;79.53;74.40;;;;;;;;;;5026960;28;20057;-55
2023/09/10 04:17:16;;;;;;;87.07;80.70;;;;;;;;;;5021842;28;20551;-55
2023/09/10 04:19:41;;;;;;;76.78;71.45;;;;;;;;;;5013062;28;20481;-56
2023/09/10 04:22:07;;;;;;;24.48;22.48;;;;;;;;;;5015021;28;20091;-55
2023/09/10 04:24:33;;;;;;;33.40;30.95;;;;;;;;;;5025094;28;20040;-55
2023/09/10 04:26:58;;;;;;;45.72;42.40;;;;;;;;;;5031046;28;20022;-56
2023/09/10 04:29:24;;;;;;;72.70;67.80;;;;;;;;;;5026219;28;20087;-56
2023/09/10 04:31:49;;;;;;;;;;;;;;;;;;5025405;28;20087;-57
2023/09/10 04:34:15;;;;;;;64.65;60.53;;;;;;;;;;5032980;28;19905;-57
2023/09/10 04:36:40;;;;;;;146.68;136.43;;;;;;;;;;5033280;28;20385;-56
2023/09/10 04:39:08;;;;;;;34.57;32.07;;;;;;;;;;5021838;28;20034;-56
2023/09/10 04:41:34;;;;;;;27.33;25.15;;;;;;;;;;5032617;28;20044;-56
2023/09/10 04:43:59;;;;;;;79.65;74.43;;;;;;;;;;5031560;28;20025;-56
2023/09/10 04:46:24;;;;;;;26.07;24.07;;;;;;;;;;5025747;28;20092;-56
2023/09/10 04:48:50;;;;;;;29.15;26.92;;;;;;;;;;5028925;28;20025;-57
2023/09/10 04:51:15;;;;;;;24.13;22.23;;;;;;;;;;5031175;28;20036;-57
2023/09/10 04:53:42;;;;;;;34.77;32.13;;;;;;;;;;5031993;28;20037;-57
2023/09/10 04:56:07;;;;;;;51.67;47.88;;;;;;;;;;5024422;28;20017;-56
2023/09/10 04:58:32;;;;;;;158.75;147.30;;;;;;;;;;5031972;28;20025;-56
2023/09/10 05:00:57;;;;;;;160.57;149.10;;;;;;;;;;5022048;28;20038;-56
2023/09/10 05:03:23;;;;;;;35.40;32.83;;;;;;;;;;5023956;28;20017;-57
2023/09/10 05:05:48;;;;;;;47.00;43.73;;;;;;;;;;5028953;28;20029;-57
2023/09/10 05:08:13;;;;;;;32.70;30.17;;;;;;;;;;5028065;28;20844;-56
2023/09/10 05:10:38;;;;;;;156.20;145.63;;;;;;;;;;5019321;28;20036;-56
2023/09/10 05:13:03;;;;;;;55.97;52.27;;;;;;;;;;5014363;28;20033;-55
2023/09/10 05:15:28;;;;;;;48.58;45.10;;;;;;;;;;5026022;28;20100;-56
2023/09/10 05:17:54;;;;;;;39.10;35.97;;;;;;;;;;5022693;28;20033;-57
2023/09/10 05:20:19;;;;;;;89.03;83.25;;;;;;;;;;5011884;28;20084;-57
2023/09/10 05:22:44;;;;;;;67.60;63.00;;;;;;;;;;5014204;28;20025;-56
2023/09/10 05:25:09;;;;;;;119.78;110.93;;;;;;;;;;5023754;28;20017;-56
2023/09/10 05:27:34;;;;;;;144.93;135.63;;;;;;;;;;5033640;28;20481;-56
2023/09/10 05:29:59;;;;;;;89.73;83.33;;;;;;;;;;5022974;28;20041;-56
2023/09/10 05:32:26;;;;;;;47.57;43.83;;;;;;;;;;5021122;28;20064;-56
2023/09/10 05:34:52;;;;;;;121.05;113.40;;;;;;;;;;5026592;28;20026;-56
2023/09/10 05:37:17;;;;;;;117.70;109.43;;;;;;;;;;5019825;28;20017;-56
2023/09/10 05:39:42;;;;;;;84.37;77.73;;;;;;;;;;5023611;28;20484;-56
2023/09/10 05:42:07;;;;;;;23.37;21.47;;;;;;;;;;5032587;28;20047;-56
2023/09/10 05:44:32;;;;;;;63.00;58.83;;;;;;;;;;5033322;28;20469;-56
2023/09/10 05:46:58;;;;;;;58.77;54.43;;;;;;;;;;5032720;28;20112;-57
2023/09/10 05:49:23;;;;;;;41.05;38.13;;;;;;;;;;5029992;28;20025;-56
2023/09/10 05:51:48;;;;;;;156.97;145.83;;;;;;;;;;5030840;28;20045;-56
2023/09/10 05:54:13;;;;;;;55.77;51.67;;;;;;;;;;5019207;28;20049;-56
2023/09/10 05:56:39;;;;;;;139.30;129.43;;;;;;;;;;5019725;28;20014;-56
2023/09/10 05:59:05;;;;;;;140.37;131.17;;;;;;;;;;5013686;28;20030;-56
2023/09/10 06:01:30;;;;;;;58.00;53.78;;;;;;;;;;5019376;28;20018;-57
2023/09/10 06:03:57;;;;;;;45.15;42.13;;;;;;;;;;5019471;28;20029;-56
2023/09/10 06:06:22;;;;;;;52.40;47.70;;;;;;;;;;5011742;28;20064;-57
2023/09/10 06:08:47;;;;;;;104.43;97.20;;;;;;;;;;5020381;28;20084;-57
2023/09/10 06:11:12;;;;;;;75.90;71.17;;;;;;;;;;5011555;28;20022;-57
2023/09/10 06:13:37;;;;;;;88.63;82.60;;;;;;;;;;5012441;28;20616;-56
2023/09/10 06:16:02;;;;;;;100.07;93.63;;;;;;;;;;5021892;28;20014;-55
2023/09/10 06:18:28;;;;;;;114.47;106.55;;;;;;;;;;5011638;28;20026;-56
2023/09/10 06:20:53;;;;;;;88.60;82.87;;;;;;;;;;5011491;28;20090;-56
2023/09/10 06:23:18;;;;;;;72.00;67.30;;;;;;;;;;5015322;28;20059;-57
2023/09/10 06:25:43;;;;;;;91.57;83.88;;;;;;;;;;5019204;28;20520;-56
2023/09/10 06:28:08;;;;;;;186.15;173.15;;;;;;;;;;5023139;28;20025;-57
2023/09/10 06:30:34;;;;;;;165.98;154.65;;;;;;;;;;5009269;28;20061;-56
2023/09/10 06:32:59;;;;;;;151.73;140.63;;;;;;;;;;5011680;28;20056;-56
2023/09/10 06:35:25;;;;;;;74.97;70.00;;;;;;;;;;5011553;28;20025;-57
2023/09/10 06:37:50;;;;;;;99.32;92.78;;;;;;;;;;5017513;28;20096;-56
2023/09/10 06:40:15;;;;;;;100.43;94.05;;;;;;;;;;5015697;28;20389;-57
2023/09/10 06:42:41;;;;;;;115.27;107.87;;;;;;;;;;5011266;28;20076;-56
2023/09/10 06:45:06;;;;;;;169.93;159.13;;;;;;;;;;5011293;28;20343;-56
2023/09/10 06:47:31;;;;;;;178.40;165.87;;;;;;;;;;5011341;28;20077;-56
2023/09/10 06:49:56;;;;;;;140.37;128.37;;;;;;;;;;5010595;28;20018;-56
2023/09/10 06:52:21;;;;;;;85.93;80.07;;;;;;;;;;5016369;28;20048;-57
2023/09/10 06:54:47;;;;;;;117.00;108.78;;;;;;;;;;5022428;28;20030;-57
2023/09/10 06:57:13;;;;;;;138.63;128.73;;;;;;;;;;5030761;28;20120;-56
2023/09/10 06:59:38;;;;;;;86.88;81.00;;;;;;;;;;5030373;28;20047;-57
2023/09/10 07:02:03;;;;;;;124.20;114.88;;;;;;;;;;5030752;28;20049;-56
2023/09/10 07:04:28;;;;;;;102.50;95.37;;;;;;;;;;5030691;28;20017;-57
2023/09/10 07:06:54;;;;;;;95.60;89.10;;;;;;;;;;5021802;28;20029;-56
2023/09/10 07:09:21;;;;;;;110.30;101.93;;;;;;;;;;5018025;28;20018;-56
2023/09/10 07:11:47;;;;;;;140.25;130.15;;;;;;;;;;5010967;28;20472;-57
2023/09/10 07:14:12;;;;;;;139.25;129.27;;;;;;;;;;5010820;28;20045;-57
2023/09/10 07:16:37;;;;;;;148.33;138.70;;;;;;;;;;5010993;28;20095;-57
2023/09/10 07:19:03;;;;;;;85.07;79.75;;;;;;;;;;5010038;28;20628;-56
2023/09/10 07:21:28;;;;;;;119.70;111.25;;;;;;;;;;5017938;28;20485;-57
2023/09/10 07:23:53;;;;;;;153.87;142.47;;;;;;;;;;5021466;28;20445;-57
2023/09/10 07:26:18;;;;;;;162.73;152.03;;;;;;;;;;5012594;28;20034;-57
2023/09/10 07:28:43;;;;;;;118.20;110.30;;;;;;;;;;5030166;28;20025;-56
2023/09/10 07:31:09;;;;;;;95.87;89.57;;;;;;;;;;5030056;28;20033;-56
2023/09/10 07:33:34;;;;;;;122.93;113.60;;;;;;;;;;5030770;28;20033;-57
2023/09/10 07:35:59;;;;;;;134.70;124.53;;;;;;;;;;5032514;28;20028;-56
2023/09/10 07:38:24;;;;;;;182.47;167.57;;;;;;;;;;5022430;28;20378;-55
2023/09/10 07:40:49;;;;;;;149.70;138.00;;;;;;;;;;5025305;28;20029;-57
2023/09/10 07:43:14;;;;;;;230.73;213.20;;;;;;;;;;5026228;28;20083;-57
2023/09/10 07:45:40;;;;;;;120.43;111.40;;;;;;;;;;5034644;28;20032;-57
2023/09/10 07:48:05;;;;;;;152.40;141.03;;;;;;;;;;5031693;28;20168;-57
2023/09/10 07:50:31;;;;;;;184.23;170.27;;;;;;;;;;5026193;28;20026;-56
2023/09/10 07:52:56;;;;;;;254.13;235.07;;;;;;;;;;5024519;28;20017;-56
2023/09/10 07:55:21;;;;;;;204.10;188.45;;;;;;;;;;5014099;28;20028;-57
2023/09/10 07:57:47;;;;;;;326.40;300.20;;;;;;;;;;5013905;28;20022;-57
2023/09/10 08:00:12;;;;;;;221.20;203.90;;;;;;;;;;5013039;28;20013;-57
2023/09/10 08:02:37;;;;;;;146.23;134.77;;;;;;;;;;5017862;28;20477;-57
2023/09/10 08:05:04;;;;;;;225.77;209.83;;;;;;;;;;5023525;28;20021;-57
2023/09/10 08:07:29;;;;;;;292.73;270.98;;;;;;;;;;5023478;28;20033;-56
2023/09/10 08:09:54;;;;;;;310.00;286.50;;;;;;;;;;5032541;28;20106;-57
2023/09/10 08:12:19;;;;;;;152.10;139.10;;;;;;;;;;5033837;28;20053;-57
2023/09/10 08:14:44;;;;;;;156.52;143.77;;;;;;;;;;5033605;28;20060;-57
2023/09/10 08:17:09;;;;;;;214.57;197.80;;;;;;;;;;5033494;28;20047;-56
2023/09/10 08:19:35;;;;;;;259.80;239.00;;;;;;;;;;5028465;28;20021;-57
2023/09/10 08:22:00;;;;;;;343.53;313.43;;;;;;;;;;5027585;28;20022;-55
2023/09/10 08:24:25;;;;;;;153.97;143.40;;;;;;;;;;5026684;28;20080;-55
2023/09/10 08:26:51;;;;;;;161.77;149.50;;;;;;;;;;5015186;28;20033;-56
2023/09/10 08:29:16;;;;;;;186.68;173.05;;;;;;;;;;5012845;28;20014;-56
2023/09/10 08:31:41;;;;;;;173.50;159.23;;;;;;;;;;5012933;28;20033;-56
2023/09/10 08:34:07;;;;;;;159.30;146.33;;;;;;;;;;5024145;28;20180;-55
2023/09/10 08:36:32;;;;;;;185.47;170.07;;;;;;;;;;5024564;28;20017;-56
2023/09/10 08:38:57;;;;;;;174.85;162.50;;;;;;;;;;5024259;28;20025;-56
2023/09/10 08:41:22;;;;;;;262.08;238.35;;;;;;;;;;5025751;28;20021;-56
2023/09/10 08:43:56;;;;;;;309.67;283.50;;;;;;;;;;5025226;28;20137;-55
2023/09/10 08:46:22;;;;;;;287.48;264.15;;;;;;;;;;5019780;28;20453;-55
2023/09/10 08:48:50;;;;;;;191.35;176.73;;;;;;;;;;5012823;28;20025;-56
2023/09/10 08:51:15;;;;;;;197.68;181.30;;;;;;;;;;5023409;28;20025;-56
2023/09/10 08:53:41;;;;;;;291.33;267.52;;;;;;;;;;5024321;28;20075;-56
2023/09/10 08:56:08;;;;;;;366.00;334.33;;;;;;;;;;5013865;28;20010;-54
2023/09/10 08:58:34;;;;;;;252.65;230.70;;;;;;;;;;5017116;28;20021;-54
2023/09/10 09:01:00;;;;;;;268.42;247.45;;;;;;;;;;5020279;28;20436;-56
2023/09/10 09:03:26;;;;;;;370.30;340.10;;;;;;;;;;5024379;28;20020;-55
2023/09/10 09:05:52;;;;;;;202.90;187.35;;;;;;;;;;5032433;28;20575;-57
2023/09/10 09:08:20;;;;;;;235.18;215.45;;;;;;;;;;5017040;28;20026;-55
2023/09/10 09:10:46;;;;;;;294.33;270.83;;;;;;;;;;5020187;28;20373;-55
2023/09/10 09:13:12;;;;;;;285.60;258.70;;;;;;;;;;5013040;28;20029;-55
2023/09/10 09:15:38;;;;;;;247.98;227.85;;;;;;;;;;5012787;28;20473;-55
2023/09/10 09:18:06;;;;;;;313.58;288.67;;;;;;;;;;5012699;28;20054;-57
2023/09/10 09:20:31;;;;;;;227.60;208.15;;;;;;;;;;5011996;28;20034;-55
2023/09/10 09:23:00;;;;;;;308.25;284.58;;;;;;;;;;5025431;28;20021;-56
2023/09/10 09:25:26;;;;;;;468.27;429.05;;;;;;;;;;5017007;28;20473;-55
2023/09/10 09:27:53;;;;;;;332.13;304.80;;;;;;;;;;5012800;28;20100;-56
2023/09/10 09:30:18;;;;;;;228.30;208.13;;;;;;;;;;5019297;28;20021;-55
2023/09/10 09:32:44;;;;;;;279.97;258.60;;;;;;;;;;5023146;28;20018;-55
2023/09/10 09:35:09;;;;;;;431.08;395.30;;;;;;;;;;5012475;28;20014;-55
2023/09/10 09:37:35;;;;;;;388.02;356.83;;;;;;;;;;5015520;28;20025;-55
2023/09/10 09:40:00;;;;;;;;;;;;;;;;;;5020140;28;20093;-55
2023/09/10 09:42:26;;;;;;;310.80;283.20;;;;;;;;;;5012106;28;19905;-55
2023/09/10 09:44:51;;;;;;;406.57;372.17;;;;;;;;;;5012157;28;20030;-56
2023/09/10 09:47:16;;;;;;;421.73;381.83;;;;;;;;;;5011877;28;20491;-56
2023/09/10 09:49:44;;;;;;;319.23;294.33;;;;;;;;;;5011394;28;20049;-55
2023/09/10 09:52:10;;;;;;;388.05;356.65;;;;;;;;;;5020709;28;20026;-56
2023/09/10 09:54:35;;;;;;;295.75;273.08;;;;;;;;;;5022715;28;20033;-56
2023/09/10 09:57:00;;;;;;;;;;;;;;;;;;5027228;28;20447;-56
2023/09/10 09:59:25;;;;;;;290.55;267.05;;;;;;;;;;5017953;28;19909;-57
2023/09/10 10:01:51;;;;;;;377.43;347.20;;;;;;;;;;5020252;28;20056;-56
2023/09/10 10:04:18;;;;;;;272.87;251.67;;;;;;;;;;5011562;28;20092;-56
2023/09/10 10:06:44;;;;;;;349.15;318.92;;;;;;;;;;5012723;28;20079;-55
2023/09/10 10:09:09;;;;;;;388.27;357.85;;;;;;;;;;5018934;28;20021;-56
2023/09/10 10:11:35;;;;;;;398.83;363.17;;;;;;;;;;5011175;28;20018;-56
2023/09/10 10:14:00;;;;;;;;;;;;;;;;;;5011757;28;20400;-56
2023/09/10 10:16:29;;;;;;;376.38;343.83;;;;;;;;;;5011461;28;20376;-56
2023/09/10 10:18:54;;;;;;;337.90;310.73;;;;;;;;;;5010814;28;20081;-56
2023/09/10 10:21:21;;;;;;;299.40;277.23;;;;;;;;;;5020438;28;20013;-56
2023/09/10 10:23:46;;;;;;;343.38;316.17;;;;;;;;;;5011384;28;20029;-56
2023/09/10 10:26:11;;;;;;;;;;;;;;;;;;5011869;28;20041;-56
2023/09/10 10:28:37;;;;;;;355.38;326.80;;;;;;;;;;5010708;28;19913;-56
2023/09/10 10:31:02;;;;;;;;;;;;;;;;;;5011515;28;20393;-56
2023/09/10 10:33:27;;;;;;;536.10;492.33;;;;;;;;;;5011059;28;19906;-56
2023/09/10 10:35:53;;;;;;;;;;;;;;;;;;5017830;28;20484;-56
2023/09/10 10:38:20;;;;;;;411.25;375.75;;;;;;;;;;5025974;28;19963;-56
2023/09/10 10:40:47;;;;;;;412.42;377.25;;;;;;;;;;5026402;28;20118;-56
2023/09/10 10:43:15;;;;;;;449.15;409.05;;;;;;;;;;5030772;28;20029;-56
2023/09/10 10:45:40;;;;;;;450.05;411.45;;;;;;;;;;5030859;28;20432;-56
2023/09/10 10:48:06;;;;;;;;;;;;;;;;;;5030648;28;20051;-57
2023/09/10 10:50:33;;;;;;;330.67;301.38;;;;;;;;;;5021606;28;19911;-56
2023/09/10 10:53:02;;;;;;;398.40;365.70;;;;;;;;;;5013305;28;20072;-56
2023/09/10 10:55:28;;;;;;;415.48;377.85;;;;;;;;;;5010919;28;20033;-56
2023/09/10 10:57:53;;;;;;;;;;;;;;;;;;5012042;28;20017;-55
2023/09/10 11:00:19;;;;;;;416.83;379.40;;;;;;;;;;5029675;28;20353;-56
2023/09/10 11:02:45;;;;;;;540.15;495.83;;;;;;;;;;5030101;28;20105;-57
2023/09/10 11:05:10;;;;;;;539.40;492.75;;;;;;;;;;5019553;28;20022;-56
2023/09/10 11:07:35;;;;;;;;;;;;;;;;;;5011466;28;20021;-56
2023/09/10 11:10:20;;;;;;;451.30;409.15;;;;;;;;;;5023523;28;19905;-56
2023/09/10 11:13:04;;;;;;;446.35;410.38;;;;;;;;;;5019658;28;20539;-56
2023/09/10 11:15:29;;;;;;;336.80;307.33;;;;;;;;;;5018783;28;20041;-57
2023/09/10 11:17:54;;;;;;;;;;;;;;;;;;5024151;28;20021;-56
2023/09/10 11:20:39;;;;;;;325.58;298.73;;;;;;;;;;5014372;28;19917;-56
2023/09/10 11:23:05;;;;;;;395.15;363.38;;;;;;;;;;5019987;28;20578;-58
2023/09/10 11:25:31;;;;;;;553.20;506.27;;;;;;;;;;5023419;28;20043;-55
2023/09/10 11:27:56;;;;;;;;;;;;;;;;;;5017262;28;20481;-56
2023/09/10 11:30:23;;;;;;;513.40;469.55;;;;;;;;;;5016812;28;20767;-56
2023/09/10 11:32:48;;;;;;;604.85;553.35;;;;;;;;;;5016099;28;20060;-56
2023/09/10 11:35:20;;;;;;;505.17;456.67;;;;;;;;;;5015887;28;20049;-56
2023/09/10 11:37:45;;;;;;;;;;;;;;;;;;5018458;28;20489;-56
2023/09/10 11:40:12;;;;;;;452.70;411.17;;;;;;;;;;5010344;28;20368;-56
2023/09/10 11:42:37;;;;;;;547.75;479.63;;;;;;;;;;5015117;28;20075;-56
2023/09/10 11:45:02;;;;;;;;;;;;;;;;;;5021444;28;20025;-56
2023/09/10 11:47:28;;;;;;;490.65;447.75;;;;;;;;;;5013404;28;19921;-58
2023/09/10 11:49:53;;;;;;;;;;;;;;;;;;5014949;28;20025;-56
2023/09/10 11:52:18;;;;;;;340.42;312.65;;;;;;;;;;5027612;28;19964;-57
2023/09/10 11:54:44;;;;;;;;;;;;;;;;;;5024005;28;20041;-56
2023/09/10 11:57:09;;;;;;;555.70;509.23;;;;;;;;;;5015137;28;19923;-57
2023/09/10 11:59:34;;;;;;;403.33;372.70;;;;;;;;;;5010674;28;20040;-56
2023/09/10 12:01:59;;;;;;;;;;;;;;;;;;5013892;28;20049;-57
2023/09/10 12:04:28;;;;;;;469.03;433.33;;;;;;;;;;5012376;28;19959;-60
2023/09/10 12:06:54;;;;;;;588.38;534.83;;;;;;;;;;5028895;28;20551;-57
2023/09/10 12:09:19;;;;;;;;;;;;;;;;;;5019491;28;20025;-56
2023/09/10 12:11:44;;;;;;;411.33;376.73;;;;;;;;;;5024921;28;20548;-57
2023/09/10 12:14:09;;;;;;;;;;;;;;;;;;5015245;28;20029;-55
2023/09/10 12:16:35;;;;;;;504.67;462.40;;;;;;;;;;5022336;28;19913;-55
2023/09/10 12:19:00;;;;;;;645.15;537.20;;;;;;;;;;5011372;28;20446;-55
2023/09/10 12:21:26;;;;;;;423.13;387.50;;;;;;;;;;5010474;28;20030;-56
2023/09/10 12:23:51;;;;;;;450.08;408.80;;;;;;;;;;5011244;28;20537;-56
2023/09/10 12:26:19;;;;;;;;;;;;;;;;;;5013618;28;20079;-55
2023/09/10 12:28:44;;;;;;;453.52;416.92;;;;;;;;;;5029103;28;19929;-56
2023/09/10 12:31:09;;;;;;;;;;;;;;;;;;5021558;28;21642;-57
2023/09/10 12:33:36;;;;;;;496.77;450.15;;;;;;;;;;5016781;28;19955;-56
2023/09/10 12:36:01;;;;;;;491.67;448.55;;;;;;;;;;5019140;28;20037;-56
2023/09/10 12:38:27;;;;;;;;;;;;;;;;;;5028269;28;20385;-57
2023/09/10 12:40:52;;;;;;;461.83;419.43;;;;;;;;;;5025467;28;20300;-56
2023/09/10 12:43:20;;;;;;;533.85;487.60;;;;;;;;;;5022347;28;20091;-56
2023/09/10 12:45:46;;;;;;;521.83;478.27;;;;;;;;;;5018564;28;20033;-57
2023/09/10 12:48:11;;;;;;;;;;;;;;;;;;5015257;28;20035;-57
2023/09/10 12:50:36;;;;;;;526.33;477.08;;;;;;;;;;5012186;28;19913;-56
2023/09/10 12:53:03;;;;;;;;;;;;;;;;;;5022020;28;20587;-57
2023/09/10 12:55:28;;;;;;;440.70;401.23;;;;;;;;;;5029030;28;19992;-57
2023/09/10 12:57:54;;;;;;;;;;;;;;;;;;5027335;28;20481;-57
2023/09/10 13:00:19;;;;;;;534.78;492.73;;;;;;;;;;5020560;28;19909;-56
2023/09/10 13:02:44;;;;;;;;;;;;;;;;;;5013224;28;20445;-56
2023/09/10 13:05:09;;;;;;;473.15;431.73;;;;;;;;;;5009480;28;19939;-57
2023/09/10 13:07:35;;;;;;;507.57;462.93;;;;;;;;;;5012990;28;20021;-56
2023/09/10 13:10:00;;;;;;;469.00;433.43;;;;;;;;;;5016308;28;20128;-57
2023/09/10 13:12:25;;;;;;;541.30;493.83;;;;;;;;;;5014876;28;20045;-58
2023/09/10 13:14:50;;;;;;;601.53;542.77;;;;;;;;;;5023365;28;20059;-55
2023/09/10 13:17:17;;;;;;;573.80;528.20;;;;;;;;;;5018113;28;20060;-56
2023/09/10 13:19:43;;;;;;;572.45;524.60;;;;;;;;;;5015943;28;20151;-56
2023/09/10 13:22:08;;;;;;;528.53;484.23;;;;;;;;;;5019129;28;20093;-56
2023/09/10 13:24:33;;;;;;;589.37;540.50;;;;;;;;;;5017546;28;20061;-56
2023/09/10 13:26:59;;;;;;;590.60;537.88;;;;;;;;;;5014236;28;20022;-57
2023/09/10 13:29:24;;;;;;;506.07;463.57;;;;;;;;;;5021086;28;20025;-55
2023/09/10 13:31:50;;;;;;;487.20;446.17;;;;;;;;;;5013995;28;20030;-56
2023/09/10 13:34:16;;;;;;;500.25;458.40;;;;;;;;;;5015995;28;20028;-57
2023/09/10 13:36:41;;;;;;;473.93;427.70;;;;;;;;;;5034695;28;20021;-57
2023/09/10 13:39:06;;;;;;;586.70;535.67;;;;;;;;;;5015990;28;20110;-57
2023/09/10 13:41:32;;;;;;;526.05;476.15;;;;;;;;;;5009745;28;20033;-57
2023/09/10 13:43:57;;;;;;;488.63;440.73;;;;;;;;;;5015948;28;20028;-56
2023/09/10 13:46:23;;;;;;;516.97;471.67;;;;;;;;;;5024548;28;20025;-57
2023/09/10 13:48:48;;;;;;;546.17;500.40;;;;;;;;;;5020340;28;20440;-56
2023/09/10 13:51:13;;;;;;;567.23;518.33;;;;;;;;;;5013548;28;20098;-57
2023/09/10 13:53:41;;;;;;;550.63;499.23;;;;;;;;;;5014730;28;20025;-57
2023/09/10 13:56:06;;;;;;;569.60;522.17;;;;;;;;;;5010311;28;20029;-57
2023/09/10 13:58:32;;;;;;;585.23;534.23;;;;;;;;;;5017822;28;20064;-56
2023/09/10 14:00:57;;;;;;;494.67;453.57;;;;;;;;;;5011690;28;20488;-57
2023/09/10 14:03:26;;;;;;;644.33;591.28;;;;;;;;;;5018446;28;20057;-56
2023/09/10 14:05:51;;;;;;;495.83;455.17;;;;;;;;;;5007469;28;20477;-57